Tiempo atmosférico en la estación meteorológica de Benabarre, Huesca (765 m.)



Fecha
DESCASC
Temp. máxima en grados centígrados (hora)
DESCASC
Temp. mínima en grados centígrados (hora)
DESCASC
Temp. media en grados centígrados
DESCASC
Racha de viento máxima en m/sg (hora)
DESCASC
Velocidad máxima media en intervalos de 10 minutos(hora)
DESCASC
Precipitaciones diarias en mm
DESCASC
Precipitaciones de 00:00 a 06:00 en mm
DESCASC
Precipitaciones de 06:00 a 12:00 en mm
DESCASC
Precipitaciones de 12:00 a 18:00 en mm
DESCASC
Precipitaciones de 18:00 a 24:00 en mm
DESCASC
10-07-2020 29.3 (15:00) 19 (23:50) 24.1 13.33 (19:50) 8.61 (19:50) 0 0 0 0 0
09-07-2020 31.7 (17:50) 18.9 (07:20) 25.3 6.94 (14:00) 4.44 (04:30) 0 0 0 0 0
08-07-2020 30.9 (17:50) 14.2 (05:00) 22.5 8.06 (20:10) 4.17 (18:40) 0 0 0 0 0
07-07-2020 27.1 (16:30) 12.5 (06:50) 19.8 6.67 (16:20) 3.61 (00:30) 0 0 0 0 0
06-07-2020 30.2 (17:30) 15.9 (00:00) 23.1 8.89 (17:30) 5.28 (18:10) 0 0 0 0 0
05-07-2020 29.8 (18:00) 13 (00:00) 21.4 6.11 (16:00) 3.89 (16:20) 0 0 0 0 0
04-07-2020 26.6 (18:20) 10.2 (00:00) 18.4 6.39 (14:50) 3.33 (16:20) 0 0 0 0 0
03-07-2020 24.9 (17:30) 14.1 (23:59) 19.5 8.61 (19:00) 5.28 (19:10) 3.2 3 0.2 0 0
02-07-2020 27.6 (17:40) 16.8 (00:00) 22.2 9.44 (19:50) 5.28 (05:10) 3.8 2.8 1 0 0
01-07-2020 31.7 (16:30) 18.6 (00:00) 25.2 11.67 (21:00) 6.94 (21:00) 0 0 0 0 0
30-06-2020 28.5 (17:30) 18.3 (00:00) 23.4 7.5 (23:59) 4.72 (23:59) 0 0 0 0 0
29-06-2020 29.3 (17:50) 16.7 (00:00) 23 11.67 (17:30) 3.89 (16:00) 0 0 0 0 0
28-06-2020 29.7 (18:40) 16.6 (00:00) 23.2 6.67 (14:10) 3.33 (14:10) 0 0 0 0 0
27-06-2020 28.5 (18:10) 13.6 (00:00) 21.1 7.5 (16:40) 3.89 (18:50) 0 0 0 0 0
26-06-2020 27.9 (14:20) 16.4 (00:00) 22.1 9.17 (18:40) 5.83 (05:00) 0.4 0.2 0.2 0 0
25-06-2020 30.8 (16:10) 14.7 (00:00) 22.7 10.56 (22:30) 7.22 (22:50) 1 0 0 0 1
24-06-2020 29.6 (16:10) 15.4 (00:00) 22.5 16.11 (22:30) 10.83 (22:20) 4.6 0 0 0 4.6
23-06-2020 29.3 (16:50) 14.2 (00:00) 21.7 6.11 (14:50) 3.61 (14:00) 0 0 0 0 0
22-06-2020 28.4 (18:20) 13.2 (00:00) 20.8 7.5 (15:00) 4.44 (04:30) 0 0 0 0 0
21-06-2020 29.3 (19:00) 12.3 (00:00) 20.8 8.89 (16:10) 5.56 (14:50) 0 0 0 0 0
20-06-2020 26.3 (19:20) 13 (00:00) 19.6 8.89 (16:40) 5.28 (16:40) 0 0 0 0 0
19-06-2020 23.5 (18:30) 12.2 (00:00) 17.8 7.22 (16:40) 4.17 (16:40) 0 0 0 0 0
18-06-2020 21.8 (19:40) 10.7 (00:00) 16.2 6.11 (12:30) 3.89 (08:20) 5.4 2.4 3 0 0
17-06-2020 20.6 (17:10) 9.2 (00:00) 14.9 9.72 (15:10) 5.83 (15:10) 0.2 0.2 0 0 0
16-06-2020 18.5 (17:00) 11.2 (00:00) 14.8 9.72 (18:10) 4.72 (18:10) 17.4 2.8 9.4 2 3.2
15-06-2020 23.4 (16:20) 13.5 (00:00) 18.4 11.11 (14:50) 6.11 (15:10) 0 0 0 0 0
14-06-2020 22.5 (17:30) 8.5 (00:00) 15.5 8.33 (15:30) 5 (17:10) 0 0 0 0 0
13-06-2020 20.2 (17:50) 7.8 (00:00) 14 10.28 (18:40) 6.39 (19:20) 0.2 0.2 0 0 0
12-06-2020 18.6 (21:00) 10.6 (00:00) 14.6 8.89 (01:30) 5 (11:50) 10.4 10.2 0.2 0 0

Gráficas

Temp. máximas Temp. mínimas Temp. medias Precipitaciones Rachas de viento máximas Velocidades máximas media en intervalos de 10 minutos

Datos horarios

Fecha y hora oficial Temperatura (ºC) Velocidad del viento (km/h) Dirección del viento Racha (km/h) Dirección de racha Precipitación (mm) Presión (hPa) Tendencia (hPa) Humedad (%)
2020-07-11 23:00:00 21.9 9 Sudeste 13 Este 0 -- -- 67
2020-07-11 22:00:00 23.8 3 Este 15 Sur 0 -- -- 61
2020-07-11 21:00:00 26.3 8 Sudoeste 17 Sur 0 -- -- 52
2020-07-11 20:00:00 27.9 9 Sudoeste 24 Sudoeste 0 -- -- 45
2020-07-11 19:00:00 28.3 8 Sur 22 Sudoeste 0 -- -- 45
2020-07-11 18:00:00 28.5 9 Sudoeste 25 Sur 0 -- -- 46
2020-07-11 17:00:00 28.6 9 Sudoeste 26 Sudoeste 0 -- -- 46
2020-07-11 16:00:00 28.7 13 Sudoeste 23 Sudoeste 0 -- -- 45
2020-07-11 15:00:00 27.5 12 Sur 23 Sudoeste 0 -- -- 50
2020-07-11 14:00:00 27 10 Sudoeste 18 Sudoeste 0 -- -- 53
2020-07-11 13:00:00 26.7 4 Sudoeste 19 Sur 0 -- -- 53
2020-07-11 12:00:00 25.4 5 Este 16 Sudeste 0 -- -- 58
2020-07-11 11:00:00 24.1 5 Este 9 Este 0 -- -- 61
2020-07-11 10:00:00 21.5 7 Sudeste 13 Sudeste 0 -- -- 66
2020-07-11 09:00:00 19.7 8 Sudeste 13 Sudeste 0 -- -- 72
2020-07-11 08:00:00 18.4 2 Sur 6 Sudeste 0 -- -- 73
2020-07-11 07:00:00 16.5 5 Este 12 Este 0 -- -- 77
2020-07-11 06:00:00 15.8 3 Sudeste 9 Este 0 -- -- 78
2020-07-11 05:00:00 16 5 Este 9 Norte 0 -- -- 76
2020-07-11 04:00:00 17 4 Nordeste 12 Nordeste 0 -- -- 71
2020-07-11 03:00:00 17.2 4 Norte 15 Nordeste 0 -- -- 72
2020-07-11 02:00:00 18.1 6 Nordeste 11 Nordeste 0 -- -- 69
2020-07-11 01:00:00 19.2 8 Nordeste 24 Nordeste 0 -- -- 66
2020-07-11 00:00:00 19 13 Este 26 Nordeste 0 -- -- 67
2020-07-10 23:00:00 19.6 13 Este 22 Este 0 -- -- 65
2020-07-10 22:00:00 20 14 Este 37 Este 0 -- -- 67
2020-07-10 21:00:00 21.5 26 Este 40 Nordeste 0 -- -- 64
2020-07-10 20:00:00 23.7 25 Este 48 Este 0 -- -- 53
2020-07-10 19:00:00 28.1 8 Sur 26 Sudoeste 0 -- -- 41
2020-07-10 18:00:00 28.7 17 Sudoeste 29 Sudoeste 0 -- -- 38
2020-07-10 17:00:00 28.9 17 Sur 33 Sudoeste 0 -- -- 43
2020-07-10 16:00:00 29.1 14 Sur 31 Sudeste 0 -- -- 44
2020-07-10 15:00:00 29.3 10 Sudeste 31 Sur 0 -- -- 43
2020-07-10 14:00:00 28.5 8 Sur 26 Sudeste 0 -- -- 48
2020-07-10 13:00:00 27.8 12 Sudeste 23 Sudeste 0 -- -- 48
2020-07-10 12:00:00 27 8 Sur 21 Sur 0 -- -- 51
2020-07-10 11:00:00 25.1 6 Oeste 14 Oeste 0 -- -- 62
2020-07-10 10:00:00 23.5 5 Noroeste 25 Nordeste 0 -- -- 73
2020-07-10 09:00:00 22.1 10 Este 21 Nordeste 0 -- -- 73
2020-07-10 08:00:00 20.7 19 Nordeste 26 Nordeste 0 -- -- 75
2020-07-10 07:00:00 21.1 22 Nordeste 36 Nordeste 0 -- -- 72
2020-07-10 06:00:00 21.2 13 Nordeste 23 Nordeste 0 -- -- 74
2020-07-10 05:00:00 20.8 13 Nordeste 18 Nordeste 0 -- -- 79
2020-07-10 04:00:00 19.8 10 Nordeste 15 Este 0 -- -- 83
2020-07-10 03:00:00 20.2 2 Este 11 Este 0 -- -- 80
2020-07-10 02:00:00 21.3 6 Este 14 Sudoeste 0 -- -- 76
2020-07-10 01:00:00 22.9 14 Oeste 24 Oeste 0 -- -- 74
2020-07-10 00:00:00 22.5 8 Este 12 Sudeste 0 -- -- 71
2020-07-09 23:00:00 22.6 7 Este 11 Este 0 -- -- 67
2020-07-09 22:00:00 23.4 6 Norte 10 Sur 0 -- -- 65
2020-07-09 21:00:00 27.4 5 Sudeste 12 Oeste 0 -- -- 50
2020-07-09 20:00:00 29.5 6 Sudoeste 14 Sudeste 0 -- -- 45
2020-07-09 19:00:00 30.5 11 Sudeste 17 Sur 0 -- -- 37
2020-07-09 18:00:00 31.7 6 Sudoeste 14 Sudoeste 0 -- -- 38
2020-07-09 17:00:00 31.1 8 Sur 17 Sur 0 -- -- 39
2020-07-09 16:00:00 30.7 3 Este 20 Sudeste 0 -- -- 41
2020-07-09 15:00:00 28.4 10 Sur 18 Sudoeste 0 -- -- 53
2020-07-09 14:00:00 28.2 15 Sur 25 Sur 0 -- -- 55
2020-07-09 13:00:00 28.7 12 Sur 23 Este 0 -- -- 53
2020-07-09 12:00:00 28 10 Este 22 Este 0 -- -- 52
2020-07-09 11:00:00 26 10 Sudeste 21 Este 0 -- -- 61
2020-07-09 10:00:00 23.1 9 Sudeste 15 Este 0 -- -- 74
2020-07-09 09:00:00 21.5 8 Sudeste 17 Norte 0 -- -- 79
2020-07-09 08:00:00 19.8 8 Noroeste 18 Nordeste 0 -- -- 85
2020-07-09 07:00:00 19.3 7 Oeste 14 Oeste 0 -- -- 87
2020-07-09 06:00:00 19.5 10 Este 22 Nordeste 0 -- -- 85
2020-07-09 05:00:00 21.2 8 Sudeste 20 Nordeste 0 -- -- 70
2020-07-09 04:00:00 20.4 12 Norte 18 Norte 0 -- -- 77
2020-07-09 03:00:00 21.5 5 Este 20 Nordeste 0 -- -- 76
2020-07-09 02:00:00 21 8 Este 17 Nordeste 0 -- -- 80
2020-07-09 01:00:00 21.9 6 Este 17 Nordeste 0 -- -- 79
2020-07-09 00:00:00 22 8 Nordeste 15 Nordeste 0 -- -- 79
2020-07-08 23:00:00 21.8 6 Este 23 Sudeste 0 -- -- 81
2020-07-08 22:00:00 23.1 13 Sudeste 29 Sudoeste 0 -- -- 78
2020-07-08 21:00:00 25.3 14 Sudoeste 29 Sudoeste 0 -- -- 67
2020-07-08 20:00:00 27.7 9 Sur 22 Sur 0 -- -- 42
2020-07-08 19:00:00 28.6 14 Sudeste 28 Sur 0 -- -- 43
2020-07-08 18:00:00 30.7 11 Sur 19 Sudeste 0 -- -- 39
2020-07-08 17:00:00 30.3 10 Sur 18 Sudoeste 0 -- -- 43
2020-07-08 16:00:00 29.3 10 Sudeste 18 Sur 0 -- -- 46
2020-07-08 15:00:00 30.2 6 Nordeste 17 Nordeste 0 -- -- 40
2020-07-08 14:00:00 28.6 7 Noroeste 25 Oeste 0 -- -- 33
2020-07-08 13:00:00 26.5 12 Sur 19 Este 0 -- -- 46
2020-07-08 12:00:00 26.4 10 Sudeste 21 Sudeste 0 -- -- 51
2020-07-08 11:00:00 24.6 5 Sudeste 13 Sudeste 0 -- -- 51
2020-07-08 10:00:00 22.9 6 Sudeste 12 Sur 0 -- -- 59
2020-07-08 09:00:00 21.3 4 Este 7 Este 0 -- -- 70
2020-07-08 08:00:00 16.8 0 Calma 8 Norte 0 -- -- 82
2020-07-08 07:00:00 14.4 6 Norte 9 Norte 0 -- -- 87
2020-07-08 06:00:00 14.6 5 Norte 9 Noroeste 0 -- -- 85
2020-07-08 05:00:00 14.2 9 Norte 11 Norte 0 -- -- 86
2020-07-08 04:00:00 14.8 3 Norte 8 Norte 0 -- -- 84
2020-07-08 03:00:00 15.7 4 Nordeste 12 Nordeste 0 -- -- 81
2020-07-08 02:00:00 15.9 6 Nordeste 10 Este 0 -- -- 82
2020-07-08 01:00:00 16.4 2 Nordeste 6 Norte 0 -- -- 80
2020-07-08 00:00:00 17.2 3 Norte 10 Norte 0 -- -- 77
2020-07-07 23:00:00 18.2 7 Norte 10 Norte 0 -- -- 74
2020-07-07 22:00:00 20.8 3 Norte 9 Sudeste 0 -- -- 68
2020-07-07 21:00:00 24.8 5 Sudeste 14 Sudeste 0 -- -- 53
2020-07-07 20:00:00 25.8 8 Sudeste 15 Sur 0 -- -- 49
2020-07-07 19:00:00 26.6 8 Sudeste 18 Sur 0 -- -- 47
2020-07-07 18:00:00 27.1 9 Sur 19 Sudoeste 0 -- -- 47
2020-07-07 17:00:00 26.8 10 Sur 24 Sudoeste 0 -- -- 47
2020-07-07 16:00:00 26.5 11 Sur 19 Sudoeste 0 -- -- 48
2020-07-07 15:00:00 26.3 10 Sur 21 Sudoeste 0 -- -- 48
2020-07-07 14:00:00 25.2 9 Sur 21 Sudeste 0 -- -- 50
2020-07-07 13:00:00 23.6 13 Sudeste 18 Sudeste 0 -- -- 52
2020-07-07 12:00:00 21.9 7 Sur 15 Sur 0 -- -- 56
2020-07-07 11:00:00 21 6 Sudeste 14 Sur 0 -- -- 56
2020-07-07 10:00:00 18.6 7 Sur 12 Sudeste 0 -- -- 62
2020-07-07 09:00:00 17.5 8 Este 13 Sudeste 0 -- -- 73
2020-07-07 08:00:00 15.8 6 Este 10 Este 0 -- -- 78
2020-07-07 07:00:00 12.5 6 Este 12 Este 0 -- -- 87
2020-07-07 06:00:00 13 8 Este 14 Este 0 -- -- 86
2020-07-07 05:00:00 13.5 8 Este 9 Sudeste 0 -- -- 86
2020-07-07 04:00:00 14.5 8 Sudeste 15 Este 0 -- -- 83
2020-07-07 03:00:00 15.6 9 Sudeste 14 Este 0 -- -- 83
2020-07-07 02:00:00 17 12 Este 15 Este 0 -- -- 79
2020-07-07 01:00:00 18.5 9 Este 17 Este 0 -- -- 74
2020-07-07 00:00:00 19.6 7 Este 9 Este 0 -- -- 71
2020-07-06 23:00:00 20.7 5 Este 11 Este 0 -- -- 68
2020-07-06 22:00:00 23.8 5 Este 9 Sudeste 0 -- -- 59
2020-07-06 21:00:00 27.7 6 Sudoeste 16 Sudoeste 0 -- -- 47
2020-07-06 20:00:00 29.4 10 Sudoeste 28 Sudoeste 0 -- -- 43
2020-07-06 19:00:00 30.1 12 Sudoeste 31 Oeste 0 -- -- 43
2020-07-06 18:00:00 30.2 17 Sudoeste 32 Sudoeste 0 -- -- 43
2020-07-06 17:00:00 30 15 Sudoeste 28 Sudoeste 0 -- -- 43
2020-07-06 16:00:00 28.9 13 Oeste 26 Oeste 0 -- -- 49
2020-07-06 15:00:00 28.3 14 Oeste 25 Oeste 0 -- -- 48
2020-07-06 14:00:00 27.4 13 Noroeste 26 Oeste 0 -- -- 56
2020-07-06 13:00:00 27.3 13 Noroeste 18 Noroeste 0 -- -- 54
2020-07-06 12:00:00 26.8 8 Oeste 15 Oeste 0 -- -- 52
2020-07-06 11:00:00 26 5 Sudeste 12 Sur 0 -- -- 52
2020-07-06 10:00:00 23.6 9 Sudeste 13 Sudeste 0 -- -- 61
2020-07-06 09:00:00 22.7 4 Sudeste 8 Sudeste 0 -- -- 59
2020-07-06 08:00:00 19.2 0 Calma 6 Este 0 -- -- 68
2020-07-06 07:00:00 17.5 4 Noroeste 12 Norte 0 -- -- 68
2020-07-06 06:00:00 17.3 2 Nordeste 9 Norte 0 -- -- 70
2020-07-06 05:00:00 17.2 0 Calma 7 Nordeste 0 -- -- 73
2020-07-06 04:00:00 16.8 2 Norte 9 Norte 0 -- -- 75
2020-07-06 03:00:00 17.5 4 Norte 11 Norte 0 -- -- 68
2020-07-06 02:00:00 17.8 8 Norte 12 Norte 0 -- -- 67
2020-07-06 01:00:00 18.5 10 Norte 13 Norte 0 -- -- 65
2020-07-06 00:00:00 18.9 9 Norte 12 Norte 0 -- -- 64
2020-07-05 23:00:00 19.8 10 Norte 12 Norte 0 -- -- 61
2020-07-05 22:00:00 22 5 Norte 9 Norte 0 -- -- 62
2020-07-05 21:00:00 28.1 5 Noroeste 17 Oeste 0 -- -- 44
2020-07-05 20:00:00 28.7 10 Oeste 15 Noroeste 0 -- -- 43
2020-07-05 19:00:00 29.3 9 Noroeste 19 Oeste 0 -- -- 39
2020-07-05 18:00:00 29.8 10 Oeste 20 Oeste 0 -- -- 37
2020-07-05 17:00:00 29.3 12 Oeste 22 Sur 0 -- -- 40
2020-07-05 16:00:00 29.2 12 Sudoeste 22 Sudoeste 0 -- -- 41
2020-07-05 15:00:00 28.6 10 Sudoeste 19 Oeste 0 -- -- 44
2020-07-05 14:00:00 27.6 11 Sur 20 Sur 0 -- -- 49
2020-07-05 13:00:00 27.1 11 Sudeste 19 Sudeste 0 -- -- 49
2020-07-05 12:00:00 26 5 Sur 15 Sudeste 0 -- -- 49
2020-07-05 11:00:00 24 5 Sur 10 Sudeste 0 -- -- 49
2020-07-05 10:00:00 22.6 6 Sudeste 15 Este 0 -- -- 54
2020-07-05 09:00:00 18.9 7 Sudeste 9 Sudeste 0 -- -- 73
2020-07-05 08:00:00 17 0 Calma 14 Norte 0 -- -- 76
2020-07-05 07:00:00 13.4 5 Noroeste 12 Norte 0 -- -- 83
2020-07-05 06:00:00 13.2 9 Norte 12 Norte 0 -- -- 83
2020-07-05 05:00:00 14.5 4 Norte 15 Norte 0 -- -- 75
2020-07-05 04:00:00 14.3 5 Norte 12 Norte 0 -- -- 77
2020-07-05 03:00:00 15.2 3 Nordeste 14 Norte 0 -- -- 76
2020-07-05 02:00:00 15.3 7 Norte 12 Norte 0 -- -- 76
2020-07-05 01:00:00 15.6 8 Norte 12 Norte 0 -- -- 76
2020-07-05 00:00:00 16.5 7 Norte 12 Norte 0 -- -- 75
2020-07-04 23:00:00 17.1 6 Norte 10 Norte 0 -- -- 74
2020-07-04 22:00:00 19.4 8 Norte 10 Norte 0 -- -- 69
2020-07-04 21:00:00 24.5 7 Sudoeste 13 Sudoeste 0 -- -- 49
2020-07-04 20:00:00 25.3 7 Noroeste 17 Oeste 0 -- -- 47
2020-07-04 19:00:00 26.2 9 Oeste 16 Oeste 0 -- -- 44
2020-07-04 18:00:00 26.4 6 Noroeste 22 Oeste 0 -- -- 42
2020-07-04 17:00:00 25.6 9 Oeste 19 Oeste 0 -- -- 41
2020-07-04 16:00:00 25 7 Noroeste 18 Oeste 0 -- -- 44
2020-07-04 15:00:00 23.9 10 Noroeste 23 Oeste 0 -- -- 54
2020-07-04 14:00:00 23.6 9 Sudoeste 17 Sudoeste 0 -- -- 48
2020-07-04 13:00:00 21.7 8 Sudeste 18 Sudeste 0 -- -- 56
2020-07-04 12:00:00 20.2 11 Sur 19 Sudeste 0 -- -- 62
2020-07-04 11:00:00 18.8 9 Sur 17 Sudeste 0 -- -- 65
2020-07-04 10:00:00 16.8 9 Sudeste 14 Sudeste 0 -- -- 70
2020-07-04 09:00:00 15.7 6 Sudeste 11 Sudeste 0 -- -- 73
2020-07-04 08:00:00 13.7 4 Sudeste 6 Este 0 -- -- 84
2020-07-04 07:00:00 10.2 3 Norte 8 Norte 0 -- -- 92
2020-07-04 06:00:00 10.9 3 Nordeste 9 Norte 0 -- -- 88
2020-07-04 05:00:00 12 5 Este 9 Este 0 -- -- 86
2020-07-04 04:00:00 12.7 7 Este 10 Este 0 -- -- 80
2020-07-04 03:00:00 12.3 6 Este 9 Este 0 -- -- 84
2020-07-04 02:00:00 12.7 3 Norte 10 Norte 0 -- -- 80
2020-07-04 01:00:00 13.4 6 Norte 11 Norte 0 -- -- 79
2020-07-04 00:00:00 14.1 6 Norte 10 Nordeste 0 -- -- 79
2020-07-03 23:00:00 15.4 6 Norte 10 Norte 0 -- -- 75
2020-07-03 22:00:00 19.7 3 Este 12 Sur 0 -- -- 60
2020-07-03 21:00:00 23.4 5 Sudoeste 22 Oeste 0 -- -- 44
2020-07-03 20:00:00 23.8 14 Sudoeste 30 Oeste 0 -- -- 43
2020-07-03 19:00:00 24.7 14 Oeste 31 Oeste 0 -- -- 42
2020-07-03 18:00:00 24.8 13 Sudoeste 28 Sudoeste 0 -- -- 42
2020-07-03 17:00:00 24.5 8 Oeste 22 Oeste 0 -- -- 46
2020-07-03 16:00:00 23.5 11 Sudoeste 28 Oeste 0 -- -- 46
2020-07-03 15:00:00 22.5 15 Oeste 26 Oeste 0 -- -- 57
2020-07-03 14:00:00 20.9 5 Sudoeste 15 Sudeste 0 -- -- 68
2020-07-03 13:00:00 19.4 9 Sudeste 14 Sudeste 0 -- -- 78
2020-07-03 12:00:00 16.9 9 Sudeste 13 Sur 0 -- -- 87
2020-07-03 11:00:00 15.6 8 Sudeste 14 Sudeste 0 -- -- 92
2020-07-03 10:00:00 15.5 6 Sudeste 11 Sur 0 -- -- 94
2020-07-03 09:00:00 14.9 4 Sudeste 9 Sur 0 -- -- 95
2020-07-03 08:00:00 14.5 5 Sudeste 14 Sudeste 0 -- -- 95
2020-07-03 07:00:00 15 4 Sudeste 9 Sudeste 0.2 -- -- 95
2020-07-03 06:00:00 15.3 9 Este 15 Este 0 -- -- 95
2020-07-03 05:00:00 16 8 Sudeste 21 Sudeste 1.8 -- -- 94
2020-07-03 04:00:00 17.1 9 Sudeste 24 Sudeste 1 -- -- 94
2020-07-03 03:00:00 17.7 13 Sudeste 19 Este 0.2 -- -- 91
2020-07-03 02:00:00 18.1 14 Este 24 Este 0 -- -- 81
2020-07-03 01:00:00 17.9 6 Este 16 Nordeste 0 -- -- 80
2020-07-03 00:00:00 17.6 9 Norte 15 Norte 0 -- -- 85
2020-07-02 23:00:00 19.7 8 Noroeste 26 Este 0 -- -- 73
2020-07-02 22:00:00 20.8 7 Nordeste 22 Nordeste 0 -- -- 60
2020-07-02 21:00:00 22.4 12 Este 18 Nordeste 0 -- -- 58
2020-07-02 20:00:00 23.9 9 Este 34 Norte 0 -- -- 58
2020-07-02 19:00:00 26.9 6 Noroeste 26 Oeste 0 -- -- 49
2020-07-02 18:00:00 27.3 9 Oeste 25 Oeste 0 -- -- 49
2020-07-02 17:00:00 27.5 9 Oeste 19 Sudoeste 0 -- -- 51
2020-07-02 16:00:00 26 10 Oeste 21 Sudoeste 0 -- -- 56
2020-07-02 15:00:00 25 9 Sur 24 Sur 0 -- -- 63
2020-07-02 14:00:00 24.6 13 Sur 23 Sur 0 -- -- 65
2020-07-02 13:00:00 22.9 7 Sur 15 Sur 0 -- -- 75
2020-07-02 12:00:00 22.1 7 Este 13 Sudeste 0 -- -- 77
2020-07-02 11:00:00 20.6 7 Sudeste 12 Este 0 -- -- 84
2020-07-02 10:00:00 19.7 10 Este 18 Este 0 -- -- 85
2020-07-02 09:00:00 19 13 Este 20 Este 0 -- -- 86
2020-07-02 08:00:00 18 6 Nordeste 14 Nordeste 0 -- -- 92
2020-07-02 07:00:00 16.9 10 Nordeste 20 Este 1 -- -- 95
2020-07-02 06:00:00 17.4 14 Sudeste 27 Este 0 -- -- 93
2020-07-02 05:00:00 17.3 15 Nordeste 22 Este 2 -- -- 93
2020-07-02 04:00:00 18 13 Este 24 Este 0.2 -- -- 90
2020-07-02 03:00:00 18.8 8 Este 14 Nordeste 0.2 -- -- 82
2020-07-02 02:00:00 20 4 Sudeste 17 Noroeste 0.4 -- -- 73
2020-07-02 01:00:00 19.6 7 Nordeste 12 Norte 0 -- -- 67
2020-07-02 00:00:00 19.2 8 Norte 10 Norte 0 -- -- 66
2020-07-01 23:00:00 20.5 9 Norte 12 Norte 0 -- -- 68
2020-07-01 22:00:00 23.4 9 Norte 31 Noroeste 0 -- -- 59
2020-07-01 21:00:00 26.4 25 Noroeste 42 Noroeste 0 -- -- 46
2020-07-01 20:00:00 28.8 9 Sudoeste 24 Sudoeste 0 -- -- 41
2020-07-01 19:00:00 30.7 14 Oeste 30 Oeste 0 -- -- 35
2020-07-01 18:00:00 31.1 18 Oeste 31 Noroeste 0 -- -- 30
2020-07-01 17:00:00 31.7 8 Oeste 19 Sudoeste 0 -- -- 33
2020-07-01 16:00:00 31 9 Sudeste 21 Sudeste 0 -- -- 39
2020-07-01 15:00:00 30.4 8 Sudeste 17 Sudeste 0 -- -- 38
2020-07-01 14:00:00 29.1 10 Sur 22 Sudeste 0 -- -- 41
2020-07-01 13:00:00 28.2 8 Sur 20 Sur 0 -- -- 44
2020-07-01 12:00:00 27.1 10 Sur 22 Sudeste 0 -- -- 48
2020-07-01 11:00:00 26.2 9 Sudeste 17 Sur 0 -- -- 47
2020-07-01 10:00:00 26.1 9 Sudeste 19 Este 0 -- -- 53
2020-07-01 09:00:00 23.8 5 Este 13 Este 0 -- -- 66
2020-07-01 08:00:00 21.5 4 Este 22 Nordeste 0 -- -- 73
2020-07-01 07:00:00 19.5 12 Este 21 Este 0 -- -- 78
2020-07-01 06:00:00 18.6 9 Este 15 Este 0 -- -- 79
2020-07-01 05:00:00 19.1 8 Nordeste 15 Nordeste 0 -- -- 73
2020-07-01 04:00:00 18.6 10 Nordeste 15 Nordeste 0 -- -- 80
2020-07-01 03:00:00 19.2 6 Norte 15 Sur 0 -- -- 78
2020-07-01 02:00:00 20.4 5 Norte 11 Sur 0 -- -- 71
2020-07-01 01:00:00 22 5 Sudeste 27 Este 0 -- -- 62
2020-07-01 00:00:00 21.7 17 Este 27 Sudeste 0 -- -- 75
2020-06-30 23:00:00 22.5 4 Este 14 Sudeste 0 -- -- 71
2020-06-30 22:00:00 24.1 6 Sudeste 22 Este 0 -- -- 68
2020-06-30 21:00:00 25.8 10 Sudeste 19 Sur 0 -- -- 65
2020-06-30 20:00:00 27.5 14 Sudeste 24 Sudeste 0 -- -- 57
2020-06-30 19:00:00 28.1 10 Sur 21 Sur 0 -- -- 53
2020-06-30 18:00:00 28.4 10 Sudeste 23 Sur 0 -- -- 49
2020-06-30 17:00:00 27.9 12 Sudeste 22 Sudeste 0 -- -- 56
2020-06-30 16:00:00 28.1 9 Sur 20 Sudeste 0 -- -- 56
2020-06-30 15:00:00 27.2 9 Sudeste 18 Sudeste 0 -- -- 61
2020-06-30 14:00:00 26.2 8 Sudeste 17 Sur 0 -- -- 66
2020-06-30 13:00:00 24.6 5 Sudoeste 12 Sudoeste 0 -- -- 72
2020-06-30 12:00:00 22.5 5 Sudeste 15 Sudeste 0 -- -- 78
2020-06-30 11:00:00 22 6 Sur 11 Sudeste 0 -- -- 80
2020-06-30 10:00:00 21.3 6 Este 10 Este 0 -- -- 84
2020-06-30 09:00:00 19.8 3 Sur 8 Sur 0 -- -- 89
2020-06-30 08:00:00 19.1 4 Este 12 Sudeste 0 -- -- 94
2020-06-30 07:00:00 19.1 6 Sudeste 9 Este 0 -- -- 93
2020-06-30 06:00:00 19.3 5 Este 7 Este 0 -- -- 93
2020-06-30 05:00:00 19.6 0 Calma 4 Sudeste 0 -- -- 92
2020-06-30 04:00:00 18.7 4 Norte 6 Norte 0 -- -- 94
2020-06-30 03:00:00 18.4 5 Norte 8 Norte 0 -- -- 93
2020-06-30 02:00:00 20 0 Calma 9 Sudeste 0 -- -- 89
2020-06-30 01:00:00 21.3 4 Sur 11 Sudoeste 0 -- -- 86
2020-06-30 00:00:00 21.8 3 Sudeste 13 Sudeste 0 -- -- 84
2020-06-29 23:00:00 22.7 10 Sudeste 19 Sudeste 0 -- -- 80
2020-06-29 22:00:00 24.3 10 Sur 23 Sur 0 -- -- 75
2020-06-29 21:00:00 27.5 7 Sur 17 Sudoeste 0 -- -- 55
2020-06-29 20:00:00 28.6 12 Sudoeste 22 Oeste 0 -- -- 49
2020-06-29 19:00:00 29.1 11 Sudoeste 23 Sudoeste 0 -- -- 50
2020-06-29 18:00:00 29.3 11 Sudoeste 42 Oeste 0 -- -- 50
2020-06-29 17:00:00 29 10 Sudoeste 22 Sudoeste 0 -- -- 51
2020-06-29 16:00:00 28 14 Sudoeste 24 Sudoeste 0 -- -- 56
2020-06-29 15:00:00 28.2 10 Sur 21 Sur 0 -- -- 53
2020-06-29 14:00:00 26.5 8 Sur 17 Sudoeste 0 -- -- 59
2020-06-29 13:00:00 27.1 11 Sudeste 24 Sudeste 0 -- -- 57
2020-06-29 12:00:00 26 10 Sudeste 18 Sudeste 0 -- -- 61
2020-06-29 11:00:00 24.6 6 Sur 15 Sudeste 0 -- -- 65
2020-06-29 10:00:00 23 8 Sudeste 14 Sudeste 0 -- -- 69
2020-06-29 09:00:00 21.9 3 Nordeste 6 Este 0 -- -- 74
2020-06-29 08:00:00 19.2 2 Este 9 Norte 0 -- -- 89
2020-06-29 07:00:00 16.8 7 Norte 10 Norte 0 -- -- 93
2020-06-29 06:00:00 16.8 3 Nordeste 8 Norte 0 -- -- 92
2020-06-29 05:00:00 17.3 3 Norte 9 Norte 0 -- -- 92
2020-06-29 04:00:00 17.6 8 Norte 10 Norte 0 -- -- 91
2020-06-29 03:00:00 18.1 8 Norte 12 Norte 0 -- -- 90
2020-06-29 02:00:00 18.7 6 Norte 9 Noroeste 0 -- -- 89
2020-06-29 01:00:00 19.1 3 Norte 11 Norte 0 -- -- 87
2020-06-29 00:00:00 19.8 4 Norte 9 Sudeste 0 -- -- 83
2020-06-28 23:00:00 21.2 5 Este 11 Este 0 -- -- 78
2020-06-28 22:00:00 23.2 3 Sudeste 8 Norte 0 -- -- 67
2020-06-28 21:00:00 28 3 Oeste 17 Oeste 0 -- -- 49
2020-06-28 20:00:00 28.3 8 Noroeste 21 Oeste 0 -- -- 46
2020-06-28 19:00:00 29.4 11 Oeste 18 Oeste 0 -- -- 43
2020-06-28 18:00:00 29.5 8 Sudoeste 22 Sudoeste 0 -- -- 41
2020-06-28 17:00:00 29.2 9 Sudoeste 24 Sur 0 -- -- 41
2020-06-28 16:00:00 29 12 Sudoeste 22 Sur 0 -- -- 41
2020-06-28 15:00:00 29.3 8 Sudoeste 24 Sudoeste 0 -- -- 41
2020-06-28 14:00:00 28 8 Sudoeste 23 Oeste 0 -- -- 45
2020-06-28 13:00:00 27 8 Sudeste 19 Sudeste 0 -- -- 54
2020-06-28 12:00:00 26.6 6 Sudeste 14 Sudeste 0 -- -- 58
2020-06-28 11:00:00 25.1 7 Sur 14 Sudeste 0 -- -- 57
2020-06-28 10:00:00 24.1 5 Sudeste 15 Este 0 -- -- 62
2020-06-28 09:00:00 22.1 6 Sudeste 10 Este 0 -- -- 69
2020-06-28 08:00:00 18.7 5 Este 12 Este 0 -- -- 79
2020-06-28 07:00:00 18.5 4 Este 14 Nordeste 0 -- -- 77
2020-06-28 06:00:00 18.5 9 Este 15 Este 0 -- -- 78
2020-06-28 05:00:00 18.1 3 Sudeste 6 Este 0 -- -- 80
2020-06-28 04:00:00 17.1 3 Nordeste 7 Norte 0 -- -- 86
2020-06-28 03:00:00 16.6 6 Norte 10 Norte 0 -- -- 86
2020-06-28 02:00:00 16.8 7 Norte 11 Norte 0 -- -- 81
2020-06-28 01:00:00 17.3 4 Este 10 Norte 0 -- -- 72
2020-06-28 00:00:00 17.4 6 Norte 11 Norte 0 -- -- 68
2020-06-27 23:00:00 18.5 8 Norte 12 Norte 0 -- -- 66
2020-06-27 22:00:00 20.7 8 Norte 10 Norte 0 -- -- 65
2020-06-27 21:00:00 27 3 Oeste 16 Sudoeste 0 -- -- 41
2020-06-27 20:00:00 27.5 11 Oeste 19 Noroeste 0 -- -- 39
2020-06-27 19:00:00 27.8 13 Oeste 26 Oeste 0 -- -- 37
2020-06-27 18:00:00 28.4 11 Sudoeste 24 Sudoeste 0 -- -- 37
2020-06-27 17:00:00 28.1 6 Sudoeste 27 Oeste 0 -- -- 39
2020-06-27 16:00:00 26.8 4 Norte 17 Oeste 0 -- -- 45
2020-06-27 15:00:00 26.8 5 Sudeste 18 Sur 0 -- -- 45
2020-06-27 14:00:00 27.2 11 Sur 19 Sudeste 0 -- -- 41
2020-06-27 13:00:00 26.8 8 Sudeste 15 Sudeste 0 -- -- 42
2020-06-27 12:00:00 25.2 8 Sur 18 Sudeste 0 -- -- 43
2020-06-27 11:00:00 24 9 Sudeste 14 Sudeste 0 -- -- 48
2020-06-27 10:00:00 23 8 Sudeste 15 Este 0 -- -- 53
2020-06-27 09:00:00 20.4 5 Sudeste 9 Este 0 -- -- 67
2020-06-27 08:00:00 17 3 Noroeste 10 Norte 0 -- -- 78
2020-06-27 07:00:00 13.9 7 Noroeste 10 Norte 0 -- -- 83
2020-06-27 06:00:00 14.1 2 Sudeste 12 Nordeste 0 -- -- 80
2020-06-27 05:00:00 13.8 4 Norte 9 Norte 0 -- -- 81
2020-06-27 04:00:00 14.4 5 Norte 11 Norte 0 -- -- 81
2020-06-27 03:00:00 14.7 5 Norte 11 Norte 0 -- -- 80
2020-06-27 02:00:00 15.6 4 Norte 12 Nordeste 0 -- -- 76
2020-06-27 01:00:00 17.5 10 Nordeste 19 Nordeste 0 -- -- 70
2020-06-27 00:00:00 17.8 2 Norte 17 Norte 0 -- -- 73
2020-06-26 23:00:00 18.1 12 Norte 23 Nordeste 0 -- -- 76
2020-06-26 22:00:00 20.4 11 Noroeste 27 Este 0 -- -- 59
2020-06-26 21:00:00 22.1 3 Este 27 Oeste 0 -- -- 50
2020-06-26 20:00:00 24 19 Oeste 30 Oeste 0 -- -- 44
2020-06-26 19:00:00 25.6 12 Sudeste 33 Sudeste 0 -- -- 43
2020-06-26 18:00:00 27.1 14 Sudeste 28 Sur 0 -- -- 41
2020-06-26 17:00:00 27.4 15 Sur 29 Sudeste 0 -- -- 39
2020-06-26 16:00:00 27.4 13 Sur 27 Sur 0 -- -- 38
2020-06-26 15:00:00 27.5 14 Sur 31 Nordeste 0 -- -- 38
2020-06-26 14:00:00 27.4 14 Sudeste 31 Este 0 -- -- 36
2020-06-26 13:00:00 26.6 11 Sudeste 25 Sudeste 0 -- -- 40
2020-06-26 12:00:00 26.2 9 Este 25 Este 0 -- -- 51
2020-06-26 11:00:00 24.1 17 Este 25 Este 0 -- -- 56
2020-06-26 10:00:00 22.9 12 Este 20 Este 0 -- -- 61
2020-06-26 09:00:00 21 8 Este 22 Este 0 -- -- 68
2020-06-26 08:00:00 17.7 5 Sudoeste 26 Nordeste 0 -- -- 80
2020-06-26 07:00:00 16.4 10 Este 28 Nordeste 0.2 -- -- 81
2020-06-26 06:00:00 16.7 7 Norte 23 Este 0 -- -- 82
2020-06-26 05:00:00 16.5 21 Nordeste 32 Nordeste 0 -- -- 82
2020-06-26 04:00:00 17 8 Norte 27 Este 0.2 -- -- 82
2020-06-26 03:00:00 17.2 5 Sudoeste 21 Noroeste 0 -- -- 79
2020-06-26 02:00:00 17 10 Sudeste 23 Este 0 -- -- 77
2020-06-26 01:00:00 16.8 9 Este 16 Este 0 -- -- 80
2020-06-26 00:00:00 17.4 11 Este 31 Este 0.2 -- -- 78
2020-06-25 23:00:00 17.5 14 Nordeste 38 Nordeste 0.8 -- -- 80
2020-06-25 22:00:00 20.4 8 Este 31 Sudoeste 0 -- -- 63
2020-06-25 21:00:00 23.7 12 Sudeste 24 Sur 0 -- -- 48
2020-06-25 20:00:00 25.5 15 Sur 31 Sur 0 -- -- 47
2020-06-25 19:00:00 28.7 10 Sur 20 Sudeste 0 -- -- 39
2020-06-25 18:00:00 29.6 10 Sur 23 Sur 0 -- -- 36
2020-06-25 17:00:00 30.4 10 Sur 19 Sur 0 -- -- 37
2020-06-25 16:00:00 30.5 7 Sudeste 21 Sudeste 0 -- -- 39
2020-06-25 15:00:00 29.6 9 Sudeste 18 Sudeste 0 -- -- 43
2020-06-25 14:00:00 29 7 Sudeste 15 Sudeste 0 -- -- 43
2020-06-25 13:00:00 27.9 4 Sudeste 13 Sudoeste 0 -- -- 44
2020-06-25 12:00:00 26 6 Noroeste 13 Noroeste 0 -- -- 45
2020-06-25 11:00:00 24.8 5 Sudeste 12 Sudeste 0 -- -- 56
2020-06-25 10:00:00 22.4 6 Sudeste 10 Sudeste 0 -- -- 58
2020-06-25 09:00:00 20 4 Sudeste 9 Oeste 0 -- -- 71
2020-06-25 08:00:00 17.7 3 Sudoeste 18 Este 0 -- -- 78
2020-06-25 07:00:00 15 4 Norte 9 Este 0 -- -- 89
2020-06-25 06:00:00 15.9 5 Nordeste 9 Nordeste 0 -- -- 84
2020-06-25 05:00:00 15.8 4 Nordeste 15 Nordeste 0 -- -- 82
2020-06-25 04:00:00 15 4 Noroeste 9 Norte 0 -- -- 86
2020-06-25 03:00:00 16.5 3 Norte 10 Nordeste 0 -- -- 81
2020-06-25 02:00:00 17.2 0 Calma 19 Nordeste 0 -- -- 77
2020-06-25 01:00:00 17.7 12 Nordeste 23 Este 0 -- -- 76
2020-06-25 00:00:00 17 12 Este 22 Sudeste 0 -- -- 83
2020-06-24 23:00:00 17.6 11 Sur 58 Norte 0.2 -- -- 78
2020-06-24 22:00:00 16.9 14 Norte 31 Norte 0.4 -- -- 87
2020-06-24 21:00:00 16.8 8 Nordeste 31 Este 4 -- -- 88
2020-06-24 20:00:00 20.9 17 Oeste 32 Oeste 0 -- -- 70
2020-06-24 19:00:00 25.1 8 Este 23 Sudoeste 0 -- -- 53
2020-06-24 18:00:00 28 13 Sudoeste 30 Sudeste 0 -- -- 49
2020-06-24 17:00:00 29 13 Sur 27 Sudeste 0 -- -- 43
2020-06-24 16:00:00 29.4 11 Sur 26 Sudeste 0 -- -- 42
2020-06-24 15:00:00 28.9 12 Sur 24 Sur 0 -- -- 46
2020-06-24 14:00:00 28.7 10 Sudeste 18 Sur 0 -- -- 46
2020-06-24 13:00:00 27.9 9 Sudeste 17 Sudeste 0 -- -- 48
2020-06-24 12:00:00 26.4 9 Sur 16 Nordeste 0 -- -- 55
2020-06-24 11:00:00 25 6 Sudeste 15 Sudeste 0 -- -- 59
2020-06-24 10:00:00 23.6 6 Sur 12 Sudeste 0 -- -- 55
2020-06-24 09:00:00 22 4 Este 9 Este 0 -- -- 70
2020-06-24 08:00:00 18.9 3 Sudoeste 20 Nordeste 0 -- -- 79
2020-06-24 07:00:00 15.4 4 Nordeste 10 Nordeste 0 -- -- 90
2020-06-24 06:00:00 15.8 0 Calma 13 Este 0 -- -- 88
2020-06-24 05:00:00 16.3 3 Este 9 Norte 0 -- -- 87
2020-06-24 04:00:00 17.5 7 Norte 11 Noroeste 0 -- -- 83
2020-06-24 03:00:00 17.3 7 Noroeste 10 Norte 0 -- -- 83
2020-06-24 02:00:00 17.5 8 Norte 10 Norte 0 -- -- 83
2020-06-24 01:00:00 19 4 Este 10 Este 0 -- -- 78
2020-06-24 00:00:00 19.9 6 Este 13 Este 0 -- -- 74
2020-06-23 23:00:00 21.2 7 Sudeste 10 Sudeste 0 -- -- 69
2020-06-23 22:00:00 23 6 Sudeste 18 Sur 0 -- -- 64
2020-06-23 21:00:00 25.9 9 Sur 19 Sur 0 -- -- 55
2020-06-23 20:00:00 27.6 8 Sur 20 Sur 0 -- -- 46
2020-06-23 19:00:00 28.7 9 Sudoeste 18 Sudoeste 0 -- -- 41
2020-06-23 18:00:00 29 10 Sur 22 Sudoeste 0 -- -- 39
2020-06-23 17:00:00 29.1 10 Sur 20 Sur 0 -- -- 38
2020-06-23 16:00:00 28.6 10 Sudeste 22 Sudeste 0 -- -- 43
2020-06-23 15:00:00 28.1 11 Sur 22 Sur 0 -- -- 43
2020-06-23 14:00:00 27.3 13 Sudeste 21 Sur 0 -- -- 48
2020-06-23 13:00:00 26.9 9 Sudeste 21 Sudeste 0 -- -- 56
2020-06-23 12:00:00 25.7 8 Sudeste 18 Este 0 -- -- 58
2020-06-23 11:00:00 24.5 6 Sudeste 15 Sudeste 0 -- -- 57
2020-06-23 10:00:00 23.5 4 Este 14 Este 0 -- -- 61
2020-06-23 09:00:00 21.7 9 Este 18 Este 0 -- -- 72
2020-06-23 08:00:00 18.1 0 Calma 7 Norte 0 -- -- 82
2020-06-23 07:00:00 14.4 7 Norte 9 Norte 0 -- -- 90
2020-06-23 06:00:00 14.2 9 Nordeste 12 Nordeste 0 -- -- 91
2020-06-23 05:00:00 14.6 3 Nordeste 7 Norte 0 -- -- 90
2020-06-23 04:00:00 15.1 3 Norte 8 Norte 0 -- -- 87
2020-06-23 03:00:00 15.5 4 Norte 7 Nordeste 0 -- -- 85
2020-06-23 02:00:00 16.7 4 Este 10 Este 0 -- -- 77
2020-06-23 01:00:00 17.8 5 Este 11 Este 0 -- -- 72
2020-06-23 00:00:00 18.8 6 Sudeste 9 Sudeste 0 -- -- 66
2020-06-22 23:00:00 18.8 2 Nordeste 8 Este 0 -- -- 71
2020-06-22 22:00:00 21.9 2 Este 10 Sur 0 -- -- 61
2020-06-22 21:00:00 25.6 4 Sudeste 15 Sur 0 -- -- 48
2020-06-22 20:00:00 26.6 8 Sur 21 Sur 0 -- -- 46
2020-06-22 19:00:00 27.5 12 Sur 20 Sudoeste 0 -- -- 44
2020-06-22 18:00:00 28.2 5 Sur 22 Sudoeste 0 -- -- 41
2020-06-22 17:00:00 27.9 9 Oeste 21 Oeste 0 -- -- 42
2020-06-22 16:00:00 26.8 11 Oeste 22 Sudoeste 0 -- -- 45
2020-06-22 15:00:00 26.2 11 Noroeste 27 Oeste 0 -- -- 46
2020-06-22 14:00:00 25.4 12 Oeste 24 Noroeste 0 -- -- 51
2020-06-22 13:00:00 24.8 9 Oeste 21 Oeste 0 -- -- 52
2020-06-22 12:00:00 24.3 9 Oeste 18 Oeste 0 -- -- 50
2020-06-22 11:00:00 23.2 7 Oeste 12 Oeste 0 -- -- 49
2020-06-22 10:00:00 22.4 4 Sudoeste 9 Este 0 -- -- 50
2020-06-22 09:00:00 20.9 0 Calma 6 Este 0 -- -- 56
2020-06-22 08:00:00 16.5 4 Nordeste 8 Norte 0 -- -- 70
2020-06-22 07:00:00 13.2 8 Norte 13 Nordeste 0 -- -- 77
2020-06-22 06:00:00 13.5 10 Nordeste 18 Este 0 -- -- 76
2020-06-22 05:00:00 16.8 14 Nordeste 23 Este 0 -- -- 59
2020-06-22 04:00:00 16.7 12 Nordeste 19 Este 0 -- -- 62
2020-06-22 03:00:00 17.9 12 Nordeste 17 Nordeste 0 -- -- 59
2020-06-22 02:00:00 18.5 8 Nordeste 21 Este 0 -- -- 53
2020-06-22 01:00:00 19.6 5 Sudeste 15 Nordeste 0 -- -- 55
2020-06-22 00:00:00 17.9 7 Norte 13 Norte 0 -- -- 67
2020-06-21 23:00:00 20 10 Norte 17 Noroeste 0 -- -- 58
2020-06-21 22:00:00 24 13 Noroeste 21 Noroeste 0 -- -- 44
2020-06-21 21:00:00 26.8 12 Noroeste 25 Sudoeste 0 -- -- 41
2020-06-21 20:00:00 28.4 18 Oeste 28 Oeste 0 -- -- 32
2020-06-21 19:00:00 29.3 14 Sudoeste 29 Sudoeste 0 -- -- 28
2020-06-21 18:00:00 28.9 18 Oeste 32 Sudoeste 0 -- -- 34
2020-06-21 17:00:00 28.7 14 Oeste 32 Oeste 0 -- -- 37
2020-06-21 16:00:00 27.5 13 Oeste 32 Oeste 0 -- -- 40
2020-06-21 15:00:00 26.1 17 Oeste 32 Oeste 0 -- -- 50
2020-06-21 14:00:00 25.3 15 Oeste 24 Oeste 0 -- -- 55
2020-06-21 13:00:00 24.9 10 Oeste 20 Oeste 0 -- -- 53
2020-06-21 12:00:00 23.8 10 Noroeste 18 Noroeste 0 -- -- 51
2020-06-21 11:00:00 22 7 Noroeste 13 Oeste 0 -- -- 56
2020-06-21 10:00:00 20.8 4 Sur 8 Sudoeste 0 -- -- 70
2020-06-21 09:00:00 17.8 3 Sudoeste 5 Norte 0 -- -- 82
2020-06-21 08:00:00 14.2 3 Norte 10 Norte 0 -- -- 90
2020-06-21 07:00:00 13.1 9 Noroeste 14 Norte 0 -- -- 89
2020-06-21 06:00:00 12.4 10 Norte 12 Norte 0 -- -- 89
2020-06-21 05:00:00 13.6 8 Norte 14 Norte 0 -- -- 88
2020-06-21 04:00:00 13.9 9 Norte 12 Norte 0 -- -- 93
2020-06-21 03:00:00 14.4 7 Norte 12 Norte 0 -- -- 92
2020-06-21 02:00:00 14.4 8 Norte 14 Norte 0 -- -- 88
2020-06-21 01:00:00 15.1 5 Este 12 Norte 0 -- -- 77
2020-06-21 00:00:00 16.7 4 Este 13 Norte 0 -- -- 68
2020-06-20 23:00:00 18.3 11 Noroeste 18 Oeste 0 -- -- 62
2020-06-20 22:00:00 19.4 11 Noroeste 14 Oeste 0 -- -- 60
2020-06-20 21:00:00 25 9 Oeste 24 Oeste 0 -- -- 42
2020-06-20 20:00:00 26.1 17 Oeste 29 Oeste 0 -- -- 39
2020-06-20 19:00:00 26.1 18 Oeste 30 Sudoeste 0 -- -- 44
2020-06-20 18:00:00 25.9 16 Oeste 29 Oeste 0 -- -- 48
2020-06-20 17:00:00 25.2 13 Oeste 32 Oeste 0 -- -- 52
2020-06-20 16:00:00 25.1 16 Oeste 30 Oeste 0 -- -- 54
2020-06-20 15:00:00 24.4 9 Oeste 28 Oeste 0 -- -- 59
2020-06-20 14:00:00 24 12 Oeste 24 Sudoeste 0 -- -- 61
2020-06-20 13:00:00 22.8 12 Oeste 19 Oeste 0 -- -- 67
2020-06-20 12:00:00 22.3 6 Sur 10 Sudeste 0 -- -- 69
2020-06-20 11:00:00 22 5 Sudoeste 12 Sudeste 0 -- -- 69
2020-06-20 10:00:00 20.3 4 Sur 8 Este 0 -- -- 76
2020-06-20 09:00:00 18.3 2 Sudoeste 6 Sudoeste 0 -- -- 84
2020-06-20 08:00:00 15.9 0 Calma 10 Norte 0 -- -- 93
2020-06-20 07:00:00 13.3 9 Norte 12 Norte 0 -- -- 96
2020-06-20 06:00:00 13.5 5 Norte 9 Norte 0 -- -- 95
2020-06-20 05:00:00 14 5 Norte 6 Norte 0 -- -- 94
2020-06-20 04:00:00 14.9 2 Este 8 Nordeste 0 -- -- 94
2020-06-20 03:00:00 14.8 3 Este 9 Nordeste 0 -- -- 94
2020-06-20 02:00:00 14.8 8 Nordeste 10 Nordeste 0 -- -- 94
2020-06-20 01:00:00 15.2 3 Este 11 Este 0 -- -- 93
2020-06-20 00:00:00 15.3 3 Nordeste 8 Este 0 -- -- 92
2020-06-19 23:00:00 17.2 4 Este 9 Sudeste 0 -- -- 84
2020-06-19 22:00:00 18.7 4 Sudeste 13 Sudeste 0 -- -- 79
2020-06-19 21:00:00 20.7 6 Sur 15 Sur 0 -- -- 66
2020-06-19 20:00:00 21.5 10 Sur 24 Sudoeste 0 -- -- 61
2020-06-19 19:00:00 23.3 10 Sudoeste 23 Sudoeste 0 -- -- 55
2020-06-19 18:00:00 22.6 11 Sur 21 Sudoeste 0 -- -- 59
2020-06-19 17:00:00 22.6 10 Sur 26 Sudoeste 0 -- -- 58
2020-06-19 16:00:00 22.7 10 Sudoeste 18 Sudoeste 0 -- -- 59
2020-06-19 15:00:00 21.7 8 Sudoeste 16 Sudoeste 0 -- -- 59
2020-06-19 14:00:00 20.3 5 Sur 18 Este 0 -- -- 62
2020-06-19 13:00:00 19.6 9 Sudeste 18 Sur 0 -- -- 65
2020-06-19 12:00:00 18.4 5 Sur 19 Sudeste 0 -- -- 73
2020-06-19 11:00:00 16.7 9 Sudeste 18 Sudeste 0 -- -- 81
2020-06-19 10:00:00 14.7 10 Sudeste 22 Este 0 -- -- 88
2020-06-19 09:00:00 14.6 7 Sudeste 15 Este 0 -- -- 89
2020-06-19 08:00:00 14.2 8 Este 11 Sudeste 0 -- -- 94
2020-06-19 07:00:00 13.8 6 Sudeste 14 Sudeste 0 -- -- 95
2020-06-19 06:00:00 13.6 7 Sudeste 11 Sudeste 0 -- -- 96
2020-06-19 05:00:00 12.9 6 Este 9 Este 0 -- -- 95
2020-06-19 04:00:00 12.8 3 Este 12 Norte 0 -- -- 94
2020-06-19 03:00:00 12.3 7 Norte 10 Norte 0 -- -- 93
2020-06-19 02:00:00 13.1 5 Noroeste 12 Norte 0 -- -- 90
2020-06-19 01:00:00 13.9 8 Norte 12 Norte 0 -- -- 88
2020-06-19 00:00:00 15.8 5 Este 8 Este 0 -- -- 78
2020-06-18 23:00:00 16.6 4 Este 9 Este 0 -- -- 73
2020-06-18 22:00:00 17.5 3 Sudeste 13 Sur 0 -- -- 69
2020-06-18 21:00:00 19.8 4 Sudoeste 13 Sudoeste 0 -- -- 62
2020-06-18 20:00:00 21.1 4 Nordeste 17 Oeste 0 -- -- 55
2020-06-18 19:00:00 21.6 3 Noroeste 17 Noroeste 0 -- -- 51
2020-06-18 18:00:00 21.4 11 Noroeste 22 Noroeste 0 -- -- 50
2020-06-18 17:00:00 21.1 12 Noroeste 20 Oeste 0 -- -- 49
2020-06-18 16:00:00 20.4 10 Oeste 22 Oeste 0 -- -- 56
2020-06-18 15:00:00 19.4 8 Oeste 21 Noroeste 0 -- -- 60
2020-06-18 14:00:00 18.4 11 Oeste 22 Oeste 0 -- -- 61
2020-06-18 13:00:00 17.4 11 Noroeste 22 Oeste 0 -- -- 61
2020-06-18 12:00:00 16.4 9 Oeste 17 Oeste 0 -- -- 66
2020-06-18 11:00:00 15.4 5 Oeste 13 Este 0 -- -- 83
2020-06-18 10:00:00 14.9 7 Sudeste 15 Este 0 -- -- 81
2020-06-18 09:00:00 13 8 Este 18 Este 0.4 -- -- 94
2020-06-18 08:00:00 11.1 6 Noroeste 14 Oeste 2.6 -- -- 94
2020-06-18 07:00:00 10.9 6 Norte 14 Nordeste 0 -- -- 94
2020-06-18 06:00:00 10.9 9 Este 14 Este 0.8 -- -- 94
2020-06-18 05:00:00 11.3 4 Noroeste 10 Norte 0.4 -- -- 92
2020-06-18 04:00:00 11.6 8 Norte 12 Norte 0.4 -- -- 91
2020-06-18 03:00:00 12.7 3 Sudeste 14 Sudeste 0.8 -- -- 82
2020-06-18 02:00:00 12.1 3 Este 10 Sudeste 0 -- -- 79
2020-06-18 01:00:00 11.7 6 Norte 10 Norte 0 -- -- 79
2020-06-18 00:00:00 10.7 6 Norte 11 Noroeste 0 -- -- 82
2020-06-17 23:00:00 12.1 6 Norte 14 Oeste 0 -- -- 77
2020-06-17 22:00:00 14.4 5 Norte 10 Oeste 0 -- -- 71
2020-06-17 21:00:00 19.7 6 Oeste 20 Oeste 0 -- -- 48
2020-06-17 20:00:00 20 12 Oeste 26 Sudoeste 0 -- -- 45
2020-06-17 19:00:00 20.2 12 Noroeste 30 Oeste 0 -- -- 45
2020-06-17 18:00:00 20.1 18 Oeste 33 Oeste 0 -- -- 47
2020-06-17 17:00:00 20.5 17 Oeste 33 Oeste 0 -- -- 42
2020-06-17 16:00:00 20.1 17 Oeste 35 Oeste 0 -- -- 44
2020-06-17 15:00:00 19.7 17 Oeste 32 Oeste 0 -- -- 50
2020-06-17 14:00:00 18.8 14 Noroeste 28 Oeste 0 -- -- 56
2020-06-17 13:00:00 17.4 16 Oeste 27 Oeste 0 -- -- 57
2020-06-17 12:00:00 16.4 13 Oeste 22 Oeste 0 -- -- 65
2020-06-17 11:00:00 14.3 9 Oeste 15 Oeste 0 -- -- 88
2020-06-17 10:00:00 12.9 6 Noroeste 10 Noroeste 0 -- -- 97
2020-06-17 09:00:00 11.5 2 Este 5 Nordeste 0 -- -- 99
2020-06-17 08:00:00 10.6 2 Noroeste 8 Este 0 -- -- 98
2020-06-17 07:00:00 9.6 0 Calma 10 Norte 0 -- -- 98
2020-06-17 06:00:00 9.4 3 Norte 8 Norte 0 -- -- 97
2020-06-17 05:00:00 11 0 Calma 7 Sudoeste 0 -- -- 97
2020-06-17 04:00:00 11.4 6 Noroeste 9 Noroeste 0 -- -- 97
2020-06-17 03:00:00 10.8 2 Nordeste 10 Norte 0 -- -- 96
2020-06-17 02:00:00 11.2 2 Norte 8 Norte 0.2 -- -- 96
2020-06-17 01:00:00 11.5 5 Norte 9 Norte 0 -- -- 96
2020-06-17 00:00:00 11.8 4 Sur 11 Norte 0 -- -- 94
2020-06-16 23:00:00 11.4 6 Noroeste 12 Norte 0 -- -- 94
2020-06-16 22:00:00 12.5 6 Norte 9 Norte 0 -- -- 94
2020-06-16 21:00:00 14.5 6 Nordeste 8 Nordeste 0 -- -- 88
2020-06-16 20:00:00 14.1 4 Sudeste 9 Noroeste 0.4 -- -- 91
2020-06-16 19:00:00 13.9 12 Norte 35 Noroeste 2.8 -- -- 86
2020-06-16 18:00:00 16.2 10 Noroeste 16 Sur 0.2 -- -- 82
2020-06-16 17:00:00 18.5 9 Oeste 15 Oeste 0 -- -- 70
2020-06-16 16:00:00 17.8 9 Oeste 20 Oeste 0 -- -- 73
2020-06-16 15:00:00 15.7 12 Noroeste 22 Oeste 0 -- -- 81
2020-06-16 14:00:00 14.5 8 Noroeste 17 Noroeste 0.2 -- -- 90
2020-06-16 13:00:00 13.4 8 Oeste 14 Noroeste 1.6 -- -- 93
2020-06-16 12:00:00 12.9 10 Noroeste 15 Oeste 1 -- -- 95
2020-06-16 11:00:00 13.1 5 Noroeste 10 Noroeste 2.6 -- -- 94
2020-06-16 10:00:00 13.4 3 Este 4 Noroeste 1.2 -- -- 94
2020-06-16 09:00:00 13 0 Calma 11 Norte 1.2 -- -- 95
2020-06-16 08:00:00 12.7 2 Noroeste 8 Noroeste 1 -- -- 94
2020-06-16 07:00:00 12.6 7 Noroeste 10 Noroeste 2.4 -- -- 94
2020-06-16 06:00:00 13.5 6 Oeste 13 Oeste 2.6 -- -- 88
2020-06-16 05:00:00 14.1 2 Sudeste 10 Nordeste 0.2 -- -- 84
2020-06-16 04:00:00 14.1 6 Nordeste 10 Este 0 -- -- 83
2020-06-16 03:00:00 14 4 Noroeste 13 Oeste 0 -- -- 86
2020-06-16 02:00:00 14.3 8 Noroeste 11 Norte 0 -- -- 83
2020-06-16 01:00:00 15 0 Calma 14 Noroeste 0 -- -- 78
2020-06-16 00:00:00 16.2 9 Norte 15 Noroeste 0 -- -- 70
2020-06-15 23:00:00 17 10 Noroeste 15 Noroeste 0 -- -- 60
2020-06-15 22:00:00 16.6 5 Noroeste 13 Noroeste 0 -- -- 62
2020-06-15 21:00:00 19.6 10 Noroeste 23 Noroeste 0 -- -- 51
2020-06-15 20:00:00 21.1 14 Noroeste 27 Noroeste 0 -- -- 47
2020-06-15 19:00:00 22.6 14 Oeste 23 Norte 0 -- -- 44
2020-06-15 18:00:00 21.9 12 Noroeste 26 Noroeste 0 -- -- 46
2020-06-15 17:00:00 22.2 14 Noroeste 40 Oeste 0 -- -- 46
2020-06-15 16:00:00 23.2 18 Oeste 37 Oeste 0 -- -- 43
2020-06-15 15:00:00 22.8 20 Oeste 40 Oeste 0 -- -- 45
2020-06-15 14:00:00 21.9 17 Sudoeste 31 Oeste 0 -- -- 47
2020-06-15 13:00:00 21.2 10 Oeste 27 Oeste 0 -- -- 47
2020-06-15 12:00:00 20.5 14 Oeste 24 Oeste 0 -- -- 46
2020-06-15 11:00:00 18.8 10 Oeste 17 Oeste 0 -- -- 52
2020-06-15 10:00:00 17.8 10 Oeste 15 Noroeste 0 -- -- 60
2020-06-15 09:00:00 15.9 4 Oeste 10 Oeste 0 -- -- 78
2020-06-15 08:00:00 14.5 8 Noroeste 12 Noroeste 0 -- -- 76
2020-06-15 07:00:00 14.3 8 Noroeste 11 Noroeste 0 -- -- 78
2020-06-15 06:00:00 13.6 8 Noroeste 9 Noroeste 0 -- -- 81
2020-06-15 05:00:00 13.5 6 Noroeste 8 Noroeste 0 -- -- 81
2020-06-15 04:00:00 14.2 5 Norte 8 Norte 0 -- -- 75
2020-06-15 03:00:00 15.2 4 Norte 10 Oeste 0 -- -- 74
2020-06-15 02:00:00 16.4 6 Noroeste 10 Oeste 0 -- -- 64
2020-06-15 01:00:00 15.6 8 Noroeste 11 Noroeste 0 -- -- 73
2020-06-15 00:00:00 15.3 7 Norte 9 Norte 0 -- -- 74
2020-06-14 23:00:00 17.4 8 Noroeste 11 Noroeste 0 -- -- 64
2020-06-14 22:00:00 16.1 6 Noroeste 10 Norte 0 -- -- 70
2020-06-14 21:00:00 18.5 8 Noroeste 12 Norte 0 -- -- 57
2020-06-14 20:00:00 20.5 7 Noroeste 18 Oeste 0 -- -- 49
2020-06-14 19:00:00 21.4 12 Oeste 22 Oeste 0 -- -- 46
2020-06-14 18:00:00 22.1 11 Noroeste 27 Noroeste 0 -- -- 45
2020-06-14 17:00:00 22.1 13 Noroeste 27 Noroeste 0 -- -- 46
2020-06-14 16:00:00 20.8 12 Noroeste 30 Oeste 0 -- -- 44
2020-06-14 15:00:00 20.7 13 Oeste 24 Oeste 0 -- -- 47
2020-06-14 14:00:00 20.9 11 Oeste 22 Oeste 0 -- -- 45
2020-06-14 13:00:00 19.8 10 Oeste 23 Oeste 0 -- -- 48
2020-06-14 12:00:00 18.5 10 Noroeste 19 Noroeste 0 -- -- 49
2020-06-14 11:00:00 18.5 9 Oeste 18 Oeste 0 -- -- 48
2020-06-14 10:00:00 17.6 4 Sur 16 Este 0 -- -- 57
2020-06-14 09:00:00 14.5 5 Sudeste 13 Este 0 -- -- 71
2020-06-14 08:00:00 12.1 4 Nordeste 8 Nordeste 0 -- -- 79
2020-06-14 07:00:00 10.9 0 Calma 11 Nordeste 0 -- -- 81
2020-06-14 06:00:00 9.9 2 Sudeste 7 Norte 0 -- -- 85
2020-06-14 05:00:00 8.8 2 Sudeste 12 Norte 0 -- -- 88
2020-06-14 04:00:00 9.2 7 Norte 11 Norte 0 -- -- 84
2020-06-14 03:00:00 10.5 4 Norte 16 Norte 0 -- -- 79
2020-06-14 02:00:00 10.3 7 Norte 12 Norte 0 -- -- 82
2020-06-14 01:00:00 10 9 Norte 12 Norte 0 -- -- 84
2020-06-14 00:00:00 10.8 8 Norte 10 Norte 0 -- -- 78
2020-06-13 23:00:00 11.8 8 Noroeste 12 Noroeste 0 -- -- 75
2020-06-13 22:00:00 15 10 Noroeste 22 Oeste 0 -- -- 59
2020-06-13 21:00:00 17.9 14 Oeste 34 Oeste 0 -- -- 52
2020-06-13 20:00:00 19 22 Oeste 37 Oeste 0 -- -- 48
2020-06-13 19:00:00 19.6 22 Oeste 37 Oeste 0 -- -- 45
2020-06-13 18:00:00 20 21 Oeste 36 Oeste 0 -- -- 44
2020-06-13 17:00:00 19.9 22 Oeste 37 Oeste 0 -- -- 44
2020-06-13 16:00:00 19.6 16 Oeste 34 Sudoeste 0 -- -- 47
2020-06-13 15:00:00 19 18 Oeste 30 Noroeste 0 -- -- 46
2020-06-13 14:00:00 17.6 14 Oeste 27 Oeste 0 -- -- 58
2020-06-13 13:00:00 17.4 14 Oeste 30 Oeste 0 -- -- 58
2020-06-13 12:00:00 16.7 16 Oeste 27 Oeste 0 -- -- 61
2020-06-13 11:00:00 15.3 10 Oeste 20 Noroeste 0 -- -- 67
2020-06-13 10:00:00 13.8 12 Noroeste 22 Noroeste 0 -- -- 74
2020-06-13 09:00:00 12.7 13 Noroeste 21 Noroeste 0 -- -- 78
2020-06-13 08:00:00 10.5 15 Noroeste 21 Noroeste 0 -- -- 91
2020-06-13 07:00:00 8.7 8 Noroeste 15 Oeste 0 -- -- 94
2020-06-13 06:00:00 8 10 Norte 13 Norte 0 -- -- 91
2020-06-13 05:00:00 8.8 6 Norte 10 Norte 0 -- -- 91
2020-06-13 04:00:00 10.1 3 Norte 7 Norte 0 -- -- 90
2020-06-13 03:00:00 11.1 3 Sudeste 11 Norte 0 -- -- 87
2020-06-13 02:00:00 11.3 9 Norte 17 Norte 0.2 -- -- 84
2020-06-13 01:00:00 12.3 10 Oeste 17 Oeste 0 -- -- 80
2020-06-13 00:00:00 13 10 Oeste 16 Oeste 0 -- -- 74
2020-06-12 23:00:00 12 6 Norte 10 Norte 0 -- -- 79
2020-06-12 22:00:00 13 8 Norte 9 Norte 0 -- -- 76
2020-06-12 21:00:00 18.6 0 Calma 9 Oeste 0 -- -- 46
2020-06-12 20:00:00 18.1 8 Oeste 15 Oeste 0 -- -- 50
2020-06-12 19:00:00 17.8 7 Oeste 17 Oeste 0 -- -- 50
2020-06-12 18:00:00 17.8 6 Noroeste 24 Oeste 0 -- -- 48
2020-06-12 17:00:00 17.9 15 Noroeste 29 Oeste 0 -- -- 46
2020-06-12 16:00:00 17.4 10 Oeste 30 Noroeste 0 -- -- 54
2020-06-12 15:00:00 16.6 17 Oeste 26 Oeste 0 -- -- 55
2020-06-12 14:00:00 15.9 15 Oeste 32 Oeste 0 -- -- 59
2020-06-12 13:00:00 15.7 16 Oeste 30 Norte 0 -- -- 56
2020-06-12 12:00:00 14.9 14 Oeste 31 Oeste 0 -- -- 60
2020-06-12 11:00:00 14.3 15 Oeste 26 Oeste 0 -- -- 62
2020-06-12 10:00:00 13.3 11 Noroeste 19 Oeste 0 -- -- 90
2020-06-12 09:00:00 12.8 10 Noroeste 17 Noroeste 0 -- -- 94
2020-06-12 08:00:00 12.1 6 Noroeste 10 Noroeste 0.2 -- -- 96
2020-06-12 07:00:00 10.7 0 Calma 7 Norte 0 -- -- 98
2020-06-12 06:00:00 10.6 0 Calma 7 Este 0 -- -- 97
2020-06-12 05:00:00 10.7 0 Calma 7 Sudoeste 0 -- -- 97
2020-06-12 04:00:00 10.9 0 Calma 12 Sudeste 0 -- -- 97
2020-06-12 03:00:00 11 4 Norte 9 Oeste 1.2 -- -- 96
2020-06-12 02:00:00 11 12 Noroeste 32 Oeste 8.6 -- -- 95
2020-06-12 01:00:00 12.6 11 Este 14 Este 0.4 -- -- 97
2020-06-12 00:00:00 12.8 6 Sudeste 17 Sudeste 0.2 -- -- 97